sensor_id;sensor_type;location;lat;lon;timestamp;pressure;altitude;pressure_sealevel;temperature;humidity
77749;BME280;66938;52.084;5.228;2024-03-23T00:53:07;101174.0;;;9.14;100.0
77749;BME280;66938;52.084;5.228;2024-03-23T00:54:43;101171.0;;;9.19;100.0
77749;BME280;66938;52.084;5.228;2024-03-23T00:57:55;101166.0;;;9.09;100.0
77749;BME280;66938;52.084;5.228;2024-03-23T00:59:31;101165.0;;;9.09;100.0
77749;BME280;66938;52.084;5.228;2024-03-23T01:01:07;101164.0;;;8.98;100.0
77749;BME280;66938;52.084;5.228;2024-03-23T01:02:43;101166.0;;;9.06;100.0
77749;BME280;66938;52.084;5.228;2024-03-23T01:05:59;101162.0;;;9.05;100.0
77749;BME280;66938;52.084;5.228;2024-03-23T01:07:35;101165.0;;;8.98;100.0
77749;BME280;66938;52.084;5.228;2024-03-23T01:09:12;101160.0;;;8.96;100.0
77749;BME280;66938;52.084;5.228;2024-03-23T01:12:30;101157.0;;;8.99;100.0
77749;BME280;66938;52.084;5.228;2024-03-23T01:14:06;101155.0;;;9.06;100.0
77749;BME280;66938;52.084;5.228;2024-03-23T01:15:48;101152.0;;;9.1;100.0
77749;BME280;66938;52.084;5.228;2024-03-23T01:17:24;101147.0;;;9.08;100.0
77749;BME280;66938;52.084;5.228;2024-03-23T01:20:36;101147.0;;;9.03;100.0
77749;BME280;66938;52.084;5.228;2024-03-23T01:22:12;101143.0;;;9.09;100.0
77749;BME280;66938;52.084;5.228;2024-03-23T01:23:49;101140.0;;;9.08;100.0
77749;BME280;66938;52.084;5.228;2024-03-23T01:27:01;101130.0;;;9.14;100.0
77749;BME280;66938;52.084;5.228;2024-03-23T01:28:37;101130.0;;;9.13;100.0
77749;BME280;66938;52.084;5.228;2024-03-23T01:30:13;101120.0;;;9.14;100.0
77749;BME280;66938;52.084;5.228;2024-03-23T01:33:25;101113.0;;;9.14;100.0
77749;BME280;66938;52.084;5.228;2024-03-23T01:35:01;101112.0;;;9.02;100.0
77749;BME280;66938;52.084;5.228;2024-03-23T01:36:37;101111.0;;;8.98;100.0
77749;BME280;66938;52.084;5.228;2024-03-23T01:38:13;101110.0;;;8.94;100.0
77749;BME280;66938;52.084;5.228;2024-03-23T01:41:26;101112.0;;;8.93;100.0
77749;BME280;66938;52.084;5.228;2024-03-23T01:43:04;101113.0;;;8.91;100.0
77749;BME280;66938;52.084;5.228;2024-03-23T01:44:41;101110.0;;;8.81;100.0
77749;BME280;66938;52.084;5.228;2024-03-23T01:47:53;101112.0;;;8.78;100.0
77749;BME280;66938;52.084;5.228;2024-03-23T01:49:29;101107.0;;;8.74;100.0
77749;BME280;66938;52.084;5.228;2024-03-23T01:51:05;101101.0;;;8.65;100.0
77749;BME280;66938;52.084;5.228;2024-03-23T01:54:19;101105.0;;;8.6;100.0
77749;BME280;66938;52.084;5.228;2024-03-23T01:55:54;101110.0;;;8.53;100.0
77749;BME280;66938;52.084;5.228;2024-03-23T01:57:32;101107.0;;;8.48;100.0
77749;BME280;66938;52.084;5.228;2024-03-23T01:59:08;101110.0;;;8.4;100.0
77749;BME280;66938;52.084;5.228;2024-03-23T02:02:20;101099.0;;;8.39;100.0
77749;BME280;66938;52.084;5.228;2024-03-23T02:03:56;101098.0;;;8.27;100.0
77749;BME280;66938;52.084;5.228;2024-03-23T02:05:33;101101.0;;;8.3;100.0
77749;BME280;66938;52.084;5.228;2024-03-23T02:08:45;101102.0;;;8.23;100.0
77749;BME280;66938;52.084;5.228;2024-03-23T02:10:22;101107.0;;;8.16;100.0
77749;BME280;66938;52.084;5.228;2024-03-23T02:11:58;101108.0;;;8.14;100.0
77749;BME280;66938;52.084;5.228;2024-03-23T02:15:10;101111.0;;;8.06;100.0
77749;BME280;66938;52.084;5.228;2024-03-23T02:16:46;101105.0;;;7.97;100.0
77749;BME280;66938;52.084;5.228;2024-03-23T02:18:22;101101.0;;;7.94;100.0
77749;BME280;66938;52.084;5.228;2024-03-23T02:21:35;101098.0;;;7.92;100.0
77749;BME280;66938;52.084;5.228;2024-03-23T02:23:13;101098.0;;;7.94;100.0
77749;BME280;66938;52.084;5.228;2024-03-23T02:24:49;101093.0;;;7.83;100.0
77749;BME280;66938;52.084;5.228;2024-03-23T02:26:26;101091.0;;;7.74;100.0
77749;BME280;66938;52.084;5.228;2024-03-23T02:29:38;101084.0;;;7.84;100.0
77749;BME280;66938;52.084;5.228;2024-03-23T02:31:14;101089.0;;;7.77;100.0
77749;BME280;66938;52.084;5.228;2024-03-23T02:32:50;101084.0;;;7.76;100.0
77749;BME280;66938;52.084;5.228;2024-03-23T02:36:02;101084.0;;;7.69;100.0
77749;BME280;66938;52.084;5.228;2024-03-23T02:37:38;101085.0;;;7.71;100.0
77749;BME280;66938;52.084;5.228;2024-03-23T02:39:14;101080.0;;;7.66;100.0
77749;BME280;66938;52.084;5.228;2024-03-23T02:42:26;101082.0;;;7.66;100.0
77749;BME280;66938;52.084;5.228;2024-03-23T02:44:02;101082.0;;;7.61;100.0
77749;BME280;66938;52.084;5.228;2024-03-23T02:45:38;101080.0;;;7.45;100.0
77749;BME280;66938;52.084;5.228;2024-03-23T02:47:15;101081.0;;;7.43;100.0
77749;BME280;66938;52.084;5.228;2024-03-23T02:50:27;101080.0;;;7.47;100.0
77749;BME280;66938;52.084;5.228;2024-03-23T02:52:03;101082.0;;;7.38;100.0
77749;BME280;66938;52.084;5.228;2024-03-23T02:53:39;101090.0;;;7.32;100.0
77749;BME280;66938;52.084;5.228;2024-03-23T02:56:51;101080.0;;;7.39;100.0
77749;BME280;66938;52.084;5.228;2024-03-23T02:58:27;101082.0;;;7.38;100.0
77749;BME280;66938;52.084;5.228;2024-03-23T03:00:04;101080.0;;;7.37;100.0
77749;BME280;66938;52.084;5.228;2024-03-23T03:03:17;101082.0;;;7.4;100.0
77749;BME280;66938;52.084;5.228;2024-03-23T03:04:53;101083.0;;;7.42;100.0
77749;BME280;66938;52.084;5.228;2024-03-23T03:06:30;101082.0;;;7.38;100.0
77749;BME280;66938;52.084;5.228;2024-03-23T03:09:43;101084.0;;;7.25;100.0
77749;BME280;66938;52.084;5.228;2024-03-23T03:11:19;101084.0;;;7.18;100.0
77749;BME280;66938;52.084;5.228;2024-03-23T03:12:55;101086.0;;;7.22;100.0
77749;BME280;66938;52.084;5.228;2024-03-23T03:14:31;101086.0;;;7.25;100.0
77749;BME280;66938;52.084;5.228;2024-03-23T03:17:45;101075.0;;;7.19;100.0
77749;BME280;66938;52.084;5.228;2024-03-23T03:19:21;101083.0;;;7.18;100.0
77749;BME280;66938;52.084;5.228;2024-03-23T03:20:57;101080.0;;;7.15;100.0
77749;BME280;66938;52.084;5.228;2024-03-23T03:24:09;101076.0;;;7.1;100.0
77749;BME280;66938;52.084;5.228;2024-03-23T03:25:45;101078.0;;;7.01;100.0
77749;BME280;66938;52.084;5.228;2024-03-23T03:27:21;101078.0;;;6.89;100.0
77749;BME280;66938;52.084;5.228;2024-03-23T03:30:33;101075.0;;;6.98;100.0
77749;BME280;66938;52.084;5.228;2024-03-23T03:32:09;101075.0;;;6.9;100.0
77749;BME280;66938;52.084;5.228;2024-03-23T03:33:45;101080.0;;;6.93;100.0
77749;BME280;66938;52.084;5.228;2024-03-23T03:35:21;101077.0;;;6.88;100.0
77749;BME280;66938;52.084;5.228;2024-03-23T03:38:34;101072.0;;;6.89;100.0
77749;BME280;66938;52.084;5.228;2024-03-23T03:40:11;101070.0;;;6.92;100.0
77749;BME280;66938;52.084;5.228;2024-03-23T03:41:48;101068.0;;;6.86;100.0
77749;BME280;66938;52.084;5.228;2024-03-23T03:45:00;101068.0;;;6.8;100.0
77749;BME280;66938;52.084;5.228;2024-03-23T03:46:36;101065.0;;;6.88;100.0
77749;BME280;66938;52.084;5.228;2024-03-23T03:48:12;101065.0;;;6.84;100.0
77749;BME280;66938;52.084;5.228;2024-03-23T03:51:24;101064.0;;;6.85;100.0
77749;BME280;66938;52.084;5.228;2024-03-23T03:53:01;101062.0;;;6.79;100.0
77749;BME280;66938;52.084;5.228;2024-03-23T03:54:37;101058.0;;;6.75;100.0
77749;BME280;66938;52.084;5.228;2024-03-23T03:57:49;101055.0;;;6.68;100.0
77749;BME280;66938;52.084;5.228;2024-03-23T03:59:26;101051.0;;;6.59;100.0
77749;BME280;66938;52.084;5.228;2024-03-23T04:01:02;101058.0;;;6.55;100.0
77749;BME280;66938;52.084;5.228;2024-03-23T04:02:38;101053.0;;;6.46;100.0
77749;BME280;66938;52.084;5.228;2024-03-23T04:05:51;101052.0;;;6.45;100.0
77749;BME280;66938;52.084;5.228;2024-03-23T04:07:27;101047.0;;;6.47;100.0
77749;BME280;66938;52.084;5.228;2024-03-23T04:09:04;101046.0;;;6.36;100.0
77749;BME280;66938;52.084;5.228;2024-03-23T04:13:52;101043.0;;;6.22;100.0
77749;BME280;66938;52.084;5.228;2024-03-23T04:15:28;101039.0;;;6.16;100.0
77749;BME280;66938;52.084;5.228;2024-03-23T04:18:40;101040.0;;;6.06;100.0
77749;BME280;66938;52.084;5.228;2024-03-23T04:20:16;101042.0;;;6.11;100.0
77749;BME280;66938;52.084;5.228;2024-03-23T04:21:52;101039.0;;;6.1;100.0
77749;BME280;66938;52.084;5.228;2024-03-23T04:23:28;101041.0;;;6.0;100.0
77749;BME280;66938;52.084;5.228;2024-03-23T04:26:42;101046.0;;;5.96;100.0
77749;BME280;66938;52.084;5.228;2024-03-23T04:28:19;101040.0;;;5.97;100.0
77749;BME280;66938;52.084;5.228;2024-03-23T04:29:55;101037.0;;;6.07;100.0
77749;BME280;66938;52.084;5.228;2024-03-23T04:33:07;101034.0;;;6.09;100.0
77749;BME280;66938;52.084;5.228;2024-03-23T04:34:43;101033.0;;;6.07;100.0
77749;BME280;66938;52.084;5.228;2024-03-23T04:36:20;101034.0;;;6.02;100.0
77749;BME280;66938;52.084;5.228;2024-03-23T04:39:33;101037.0;;;6.04;100.0
77749;BME280;66938;52.084;5.228;2024-03-23T04:41:08;101045.0;;;6.1;100.0
77749;BME280;66938;52.084;5.228;2024-03-23T04:42:45;101039.0;;;6.04;100.0
77749;BME280;66938;52.084;5.228;2024-03-23T04:45:57;101041.0;;;6.14;100.0
77749;BME280;66938;52.084;5.228;2024-03-23T04:47:33;101041.0;;;6.12;100.0
77749;BME280;66938;52.084;5.228;2024-03-23T04:49:09;101040.0;;;6.16;100.0
77749;BME280;66938;52.084;5.228;2024-03-23T04:50:45;101037.0;;;6.13;100.0
77749;BME280;66938;52.084;5.228;2024-03-23T04:53:57;101030.0;;;6.13;100.0
77749;BME280;66938;52.084;5.228;2024-03-23T04:55:33;101033.0;;;6.0;100.0
77749;BME280;66938;52.084;5.228;2024-03-23T04:57:09;101030.0;;;5.98;100.0
77749;BME280;66938;52.084;5.228;2024-03-23T05:00:21;101033.0;;;5.94;100.0
77749;BME280;66938;52.084;5.228;2024-03-23T05:01:57;101028.0;;;5.95;100.0
77749;BME280;66938;52.084;5.228;2024-03-23T05:03:33;101034.0;;;5.97;100.0
77749;BME280;66938;52.084;5.228;2024-03-23T05:06:45;101031.0;;;5.98;100.0
77749;BME280;66938;52.084;5.228;2024-03-23T05:08:21;101035.0;;;5.96;100.0
77749;BME280;66938;52.084;5.228;2024-03-23T05:09:57;101032.0;;;6.01;100.0
77749;BME280;66938;52.084;5.228;2024-03-23T05:11:33;101038.0;;;5.95;100.0
77749;BME280;66938;52.084;5.228;2024-03-23T05:14:45;101038.0;;;5.97;100.0
77749;BME280;66938;52.084;5.228;2024-03-23T05:16:22;101036.0;;;5.94;100.0
77749;BME280;66938;52.084;5.228;2024-03-23T05:17:58;101034.0;;;5.93;100.0
77749;BME280;66938;52.084;5.228;2024-03-23T05:21:10;101037.0;;;6.01;100.0
77749;BME280;66938;52.084;5.228;2024-03-23T05:22:46;101039.0;;;5.99;100.0
77749;BME280;66938;52.084;5.228;2024-03-23T05:24:22;101040.0;;;5.97;100.0
77749;BME280;66938;52.084;5.228;2024-03-23T05:27:34;101042.0;;;6.0;100.0
77749;BME280;66938;52.084;5.228;2024-03-23T05:29:10;101041.0;;;6.04;100.0
77749;BME280;66938;52.084;5.228;2024-03-23T05:30:50;101041.0;;;5.96;100.0
77749;BME280;66938;52.084;5.228;2024-03-23T05:34:03;101042.0;;;6.04;100.0
77749;BME280;66938;52.084;5.228;2024-03-23T05:35:39;101044.0;;;6.0;100.0
77749;BME280;66938;52.084;5.228;2024-03-23T05:37:15;101048.0;;;6.07;100.0
77749;BME280;66938;52.084;5.228;2024-03-23T05:38:51;101045.0;;;6.16;100.0
77749;BME280;66938;52.084;5.228;2024-03-23T05:42:03;101043.0;;;6.26;100.0
77749;BME280;66938;52.084;5.228;2024-03-23T05:43:39;101044.0;;;6.3;100.0
77749;BME280;66938;52.084;5.228;2024-03-23T05:45:15;101046.0;;;6.35;100.0
77749;BME280;66938;52.084;5.228;2024-03-23T05:48:28;101041.0;;;6.41;100.0
77749;BME280;66938;52.084;5.228;2024-03-23T05:50:05;101038.0;;;6.44;100.0
77749;BME280;66938;52.084;5.228;2024-03-23T05:51:41;101038.0;;;6.48;100.0
77749;BME280;66938;52.084;5.228;2024-03-23T05:54:54;101034.0;;;6.48;100.0
77749;BME280;66938;52.084;5.228;2024-03-23T05:56:30;101030.0;;;6.51;100.0
77749;BME280;66938;52.084;5.228;2024-03-23T05:58:06;101031.0;;;6.52;100.0
77749;BME280;66938;52.084;5.228;2024-03-23T05:59:42;101031.0;;;6.45;100.0
77749;BME280;66938;52.084;5.228;2024-03-23T06:02:54;101036.0;;;6.49;100.0
77749;BME280;66938;52.084;5.228;2024-03-23T06:04:30;101038.0;;;6.43;100.0
77749;BME280;66938;52.084;5.228;2024-03-23T06:06:07;101041.0;;;6.46;100.0
77749;BME280;66938;52.084;5.228;2024-03-23T06:09:19;101034.0;;;6.48;100.0
77749;BME280;66938;52.084;5.228;2024-03-23T06:10:55;101036.0;;;6.32;100.0
77749;BME280;66938;52.084;5.228;2024-03-23T06:12:31;101034.0;;;6.41;100.0
77749;BME280;66938;52.084;5.228;2024-03-23T06:15:43;101033.0;;;6.5;100.0
77749;BME280;66938;52.084;5.228;2024-03-23T06:17:19;101037.0;;;6.45;100.0
77749;BME280;66938;52.084;5.228;2024-03-23T06:18:55;101037.0;;;6.42;100.0
77749;BME280;66938;52.084;5.228;2024-03-23T06:22:07;101037.0;;;6.49;100.0
77749;BME280;66938;52.084;5.228;2024-03-23T06:23:44;101032.0;;;6.34;100.0
77749;BME280;66938;52.084;5.228;2024-03-23T06:25:21;101026.0;;;6.5;100.0
77749;BME280;66938;52.084;5.228;2024-03-23T06:26:57;101033.0;;;6.55;100.0
77749;BME280;66938;52.084;5.228;2024-03-23T06:30:10;101030.0;;;6.55;100.0
77749;BME280;66938;52.084;5.228;2024-03-23T06:31:53;101026.0;;;6.59;100.0
77749;BME280;66938;52.084;5.228;2024-03-23T06:33:29;101024.0;;;6.64;100.0
77749;BME280;66938;52.084;5.228;2024-03-23T06:36:42;101024.0;;;6.71;100.0
77749;BME280;66938;52.084;5.228;2024-03-23T06:38:18;101022.0;;;6.76;100.0
77749;BME280;66938;52.084;5.228;2024-03-23T06:39:55;101024.0;;;6.83;100.0
77749;BME280;66938;52.084;5.228;2024-03-23T06:41:31;101020.0;;;6.92;100.0
77749;BME280;66938;52.084;5.228;2024-03-23T06:44:43;101023.0;;;6.84;100.0
77749;BME280;66938;52.084;5.228;2024-03-23T06:46:19;101022.0;;;6.91;100.0
77749;BME280;66938;52.084;5.228;2024-03-23T06:47:55;101020.0;;;6.89;100.0
77749;BME280;66938;52.084;5.228;2024-03-23T06:51:07;101022.0;;;6.91;100.0
77749;BME280;66938;52.084;5.228;2024-03-23T06:52:43;101020.0;;;7.02;100.0
77749;BME280;66938;52.084;5.228;2024-03-23T06:54:20;101021.0;;;7.0;100.0
77749;BME280;66938;52.084;5.228;2024-03-23T06:57:32;101020.0;;;7.09;100.0
77749;BME280;66938;52.084;5.228;2024-03-23T06:59:08;101023.0;;;7.21;100.0
77749;BME280;66938;52.084;5.228;2024-03-23T07:00:44;101023.0;;;7.24;100.0
77749;BME280;66938;52.084;5.228;2024-03-23T07:03:56;101023.0;;;7.39;100.0
77749;BME280;66938;52.084;5.228;2024-03-23T07:05:32;101026.0;;;7.34;100.0
77749;BME280;66938;52.084;5.228;2024-03-23T07:07:08;101028.0;;;7.47;100.0
77749;BME280;66938;52.084;5.228;2024-03-23T07:08:45;101024.0;;;7.5;100.0
77749;BME280;66938;52.084;5.228;2024-03-23T07:11:57;101027.0;;;7.67;100.0
77749;BME280;66938;52.084;5.228;2024-03-23T07:13:33;101023.0;;;7.67;100.0
77749;BME280;66938;52.084;5.228;2024-03-23T07:15:09;101022.0;;;7.73;100.0
77749;BME280;66938;52.084;5.228;2024-03-23T07:18:22;101016.0;;;7.74;100.0
77749;BME280;66938;52.084;5.228;2024-03-23T07:19:59;101024.0;;;7.8;100.0
77749;BME280;66938;52.084;5.228;2024-03-23T07:21:36;101025.0;;;7.8;100.0
77749;BME280;66938;52.084;5.228;2024-03-23T07:24:48;101027.0;;;7.79;100.0
77749;BME280;66938;52.084;5.228;2024-03-23T07:26:24;101034.0;;;7.87;100.0
77749;BME280;66938;52.084;5.228;2024-03-23T07:28:00;101030.0;;;8.07;100.0
77749;BME280;66938;52.084;5.228;2024-03-23T07:31:13;101020.0;;;7.94;100.0
77749;BME280;66938;52.084;5.228;2024-03-23T07:32:49;101026.0;;;7.98;100.0
77749;BME280;66938;52.084;5.228;2024-03-23T07:34:25;101031.0;;;8.18;100.0
77749;BME280;66938;52.084;5.228;2024-03-23T07:36:02;101022.0;;;8.42;100.0
77749;BME280;66938;52.084;5.228;2024-03-23T07:39:14;101023.0;;;8.42;100.0
77749;BME280;66938;52.084;5.228;2024-03-23T07:40:50;101022.0;;;8.48;100.0
77749;BME280;66938;52.084;5.228;2024-03-23T07:42:28;101018.0;;;8.61;100.0
77749;BME280;66938;52.084;5.228;2024-03-23T07:45:41;101022.0;;;8.53;100.0
77749;BME280;66938;52.084;5.228;2024-03-23T07:47:17;101021.0;;;8.51;100.0
77749;BME280;66938;52.084;5.228;2024-03-23T07:48:53;101022.0;;;8.6;100.0
77749;BME280;66938;52.084;5.228;2024-03-23T07:52:06;101026.0;;;8.58;100.0
77749;BME280;66938;52.084;5.228;2024-03-23T07:53:43;101020.0;;;8.64;100.0
77749;BME280;66938;52.084;5.228;2024-03-23T07:55:19;101023.0;;;8.84;100.0
77749;BME280;66938;52.084;5.228;2024-03-23T07:56:56;101018.0;;;8.9;100.0
77749;BME280;66938;52.084;5.228;2024-03-23T08:00:10;101014.0;;;8.77;100.0
77749;BME280;66938;52.084;5.228;2024-03-23T08:01:46;101016.0;;;8.72;100.0
77749;BME280;66938;52.084;5.228;2024-03-23T08:03:22;101025.0;;;8.81;100.0
77749;BME280;66938;52.084;5.228;2024-03-23T08:06:34;101020.0;;;8.67;100.0
77749;BME280;66938;52.084;5.228;2024-03-23T08:08:10;101021.0;;;8.92;100.0
77749;BME280;66938;52.084;5.228;2024-03-23T08:09:46;101019.0;;;8.88;100.0
77749;BME280;66938;52.084;5.228;2024-03-23T08:12:59;101014.0;;;8.75;100.0
77749;BME280;66938;52.084;5.228;2024-03-23T08:14:36;101013.0;;;8.68;100.0
77749;BME280;66938;52.084;5.228;2024-03-23T08:16:12;101018.0;;;8.73;100.0
77749;BME280;66938;52.084;5.228;2024-03-23T08:17:48;101014.0;;;8.81;100.0
77749;BME280;66938;52.084;5.228;2024-03-23T08:21:02;101023.0;;;8.84;100.0
77749;BME280;66938;52.084;5.228;2024-03-23T08:22:39;101020.0;;;8.81;100.0
77749;BME280;66938;52.084;5.228;2024-03-23T08:24:15;101019.0;;;8.68;100.0
77749;BME280;66938;52.084;5.228;2024-03-23T08:27:28;101017.0;;;8.66;100.0
77749;BME280;66938;52.084;5.228;2024-03-23T08:29:05;101013.0;;;8.88;100.0
77749;BME280;66938;52.084;5.228;2024-03-23T08:30:41;101027.0;;;8.97;100.0
77749;BME280;66938;52.084;5.228;2024-03-23T08:33:53;101020.0;;;8.91;100.0
77749;BME280;66938;52.084;5.228;2024-03-23T08:35:29;101016.0;;;8.88;100.0
77749;BME280;66938;52.084;5.228;2024-03-23T08:37:05;101016.0;;;8.8;100.0
77749;BME280;66938;52.084;5.228;2024-03-23T08:38:41;101023.0;;;8.73;100.0
77749;BME280;66938;52.084;5.228;2024-03-23T08:41:53;101025.0;;;8.78;100.0
77749;BME280;66938;52.084;5.228;2024-03-23T08:43:31;101024.0;;;8.78;100.0
77749;BME280;66938;52.084;5.228;2024-03-23T08:45:08;101025.0;;;8.73;100.0
77749;BME280;66938;52.084;5.228;2024-03-23T08:48:20;101030.0;;;8.74;100.0
77749;BME280;66938;52.084;5.228;2024-03-23T08:49:56;101025.0;;;8.9;100.0
77749;BME280;66938;52.084;5.228;2024-03-23T08:51:32;101030.0;;;8.77;97.62
77749;BME280;66938;52.084;5.228;2024-03-23T08:54:44;101023.0;;;8.8;97.39
77749;BME280;66938;52.084;5.228;2024-03-23T08:56:20;101019.0;;;8.67;96.71
77749;BME280;66938;52.084;5.228;2024-03-23T08:57:56;101018.0;;;8.69;100.0
77749;BME280;66938;52.084;5.228;2024-03-23T09:01:10;101006.0;;;8.67;98.94
77749;BME280;66938;52.084;5.228;2024-03-23T09:02:47;101007.0;;;8.73;96.41
77749;BME280;66938;52.084;5.228;2024-03-23T09:04:23;101009.0;;;8.58;94.75
77749;BME280;66938;52.084;5.228;2024-03-23T09:05:59;101010.0;;;8.75;95.25
77749;BME280;66938;52.084;5.228;2024-03-23T09:09:11;101016.0;;;8.86;97.78
77749;BME280;66938;52.084;5.228;2024-03-23T09:10:48;101014.0;;;8.93;96.45
77749;BME280;66938;52.084;5.228;2024-03-23T09:12:25;101011.0;;;9.09;95.25
77749;BME280;66938;52.084;5.228;2024-03-23T09:15:47;101006.0;;;9.11;91.21
77749;BME280;66938;52.084;5.228;2024-03-23T09:17:23;101003.0;;;9.26;94.25
77749;BME280;66938;52.084;5.228;2024-03-23T09:18:59;101011.0;;;9.4;96.35
77749;BME280;66938;52.084;5.228;2024-03-23T09:20:35;101005.0;;;9.39;93.87
77749;BME280;66938;52.084;5.228;2024-03-23T09:23:47;101002.0;;;9.53;92.0
77749;BME280;66938;52.084;5.228;2024-03-23T09:25:23;101010.0;;;9.39;91.17
77749;BME280;66938;52.084;5.228;2024-03-23T09:26:59;101006.0;;;9.34;89.86
77749;BME280;66938;52.084;5.228;2024-03-23T09:30:13;101002.0;;;9.53;92.16
77749;BME280;66938;52.084;5.228;2024-03-23T09:31:50;101010.0;;;9.65;89.89
77749;BME280;66938;52.084;5.228;2024-03-23T09:33:26;100997.0;;;9.74;89.97
77749;BME280;66938;52.084;5.228;2024-03-23T09:36:39;100999.0;;;9.82;87.92
77749;BME280;66938;52.084;5.228;2024-03-23T09:38:15;101005.0;;;9.75;89.82
77749;BME280;66938;52.084;5.228;2024-03-23T09:39:51;100996.0;;;9.82;89.84
77749;BME280;66938;52.084;5.228;2024-03-23T09:41:27;101000.0;;;9.85;89.03
77749;BME280;66938;52.084;5.228;2024-03-23T09:44:43;101008.0;;;9.65;84.9
77749;BME280;66938;52.084;5.228;2024-03-23T09:46:20;101002.0;;;9.73;82.0
77749;BME280;66938;52.084;5.228;2024-03-23T09:47:57;101006.0;;;9.49;80.52
77749;BME280;66938;52.084;5.228;2024-03-23T09:51:11;101003.0;;;9.21;80.31
77749;BME280;66938;52.084;5.228;2024-03-23T09:52:47;101001.0;;;9.1;81.19
77749;BME280;66938;52.084;5.228;2024-03-23T09:54:24;100999.0;;;8.89;80.86
77749;BME280;66938;52.084;5.228;2024-03-23T09:57:36;100992.0;;;8.8;84.67
77749;BME280;66938;52.084;5.228;2024-03-23T09:59:12;101005.0;;;8.89;88.04
77749;BME280;66938;52.084;5.228;2024-03-23T10:00:48;101000.0;;;8.86;89.71
77749;BME280;66938;52.084;5.228;2024-03-23T10:02:25;101002.0;;;8.93;90.65
77749;BME280;66938;52.084;5.228;2024-03-23T10:05:39;100991.0;;;9.05;90.83
77749;BME280;66938;52.084;5.228;2024-03-23T10:07:17;100994.0;;;9.1;80.83
77749;BME280;66938;52.084;5.228;2024-03-23T10:08:55;100993.0;;;9.28;81.02
77749;BME280;66938;52.084;5.228;2024-03-23T10:12:09;100994.0;;;9.48;81.42
77749;BME280;66938;52.084;5.228;2024-03-23T10:13:45;100995.0;;;9.31;78.02
77749;BME280;66938;52.084;5.228;2024-03-23T10:15:23;100988.0;;;9.31;81.8
77749;BME280;66938;52.084;5.228;2024-03-23T10:17:12;100994.0;;;9.08;80.86
77749;BME280;66938;52.084;5.228;2024-03-23T10:20:26;100996.0;;;9.23;82.14
77749;BME280;66938;52.084;5.228;2024-03-23T10:22:02;100992.0;;;9.32;81.28
77749;BME280;66938;52.084;5.228;2024-03-23T10:23:39;100995.0;;;9.23;78.8
77749;BME280;66938;52.084;5.228;2024-03-23T10:26:56;100999.0;;;9.22;78.69
77749;BME280;66938;52.084;5.228;2024-03-23T10:28:32;100988.0;;;9.19;79.58
77749;BME280;66938;52.084;5.228;2024-03-23T10:30:09;100982.0;;;9.18;78.19
77749;BME280;66938;52.084;5.228;2024-03-23T10:31:46;100985.0;;;9.13;78.19
77749;BME280;66938;52.084;5.228;2024-03-23T10:35:13;100993.0;;;9.13;81.24
77749;BME280;66938;52.084;5.228;2024-03-23T10:36:53;100990.0;;;9.15;80.91
77749;BME280;66938;52.084;5.228;2024-03-23T10:38:29;101000.0;;;9.16;81.3
77749;BME280;66938;52.084;5.228;2024-03-23T10:40:07;101038.0;;;8.88;87.74
77749;BME280;66938;52.084;5.228;2024-03-23T10:43:21;101036.0;;;8.48;96.41
77749;BME280;66938;52.084;5.228;2024-03-23T10:44:58;101022.0;;;8.06;100.0
77749;BME280;66938;52.084;5.228;2024-03-23T10:46:34;101027.0;;;8.14;100.0
77749;BME280;66938;52.084;5.228;2024-03-23T10:49:46;101012.0;;;8.01;100.0
77749;BME280;66938;52.084;5.228;2024-03-23T10:51:23;101013.0;;;7.72;100.0
77749;BME280;66938;52.084;5.228;2024-03-23T10:52:59;101006.0;;;7.67;100.0
77749;BME280;66938;52.084;5.228;2024-03-23T10:56:13;101000.0;;;7.71;100.0
77749;BME280;66938;52.084;5.228;2024-03-23T10:57:53;100994.0;;;7.76;100.0
77749;BME280;66938;52.084;5.228;2024-03-23T10:59:32;100993.0;;;7.8;100.0
77749;BME280;66938;52.084;5.228;2024-03-23T11:01:10;100996.0;;;7.8;100.0
77749;BME280;66938;52.084;5.228;2024-03-23T11:04:32;100994.0;;;7.81;100.0
77749;BME280;66938;52.084;5.228;2024-03-23T11:06:09;100999.0;;;7.85;100.0
77749;BME280;66938;52.084;5.228;2024-03-23T11:07:49;101003.0;;;8.06;100.0
77749;BME280;66938;52.084;5.228;2024-03-23T11:09:41;101000.0;;;8.06;100.0
77749;BME280;66938;52.084;5.228;2024-03-23T11:11:22;100992.0;;;8.24;100.0
77749;BME280;66938;52.084;5.228;2024-03-23T11:15:01;100996.0;;;8.41;100.0
77749;BME280;66938;52.084;5.228;2024-03-23T11:16:38;100994.0;;;8.59;100.0
77749;BME280;66938;52.084;5.228;2024-03-23T11:18:20;100994.0;;;8.81;100.0
77749;BME280;66938;52.084;5.228;2024-03-23T11:19:58;100988.0;;;8.97;99.56
77749;BME280;66938;52.084;5.228;2024-03-23T11:23:31;100987.0;;;9.18;100.0
77749;BME280;66938;52.084;5.228;2024-03-23T11:25:13;100989.0;;;9.36;95.14
77749;BME280;66938;52.084;5.228;2024-03-23T11:26:56;100983.0;;;9.4;89.11
77749;BME280;66938;52.084;5.228;2024-03-23T11:28:32;100981.0;;;9.52;88.51
77749;BME280;66938;52.084;5.228;2024-03-23T11:31:50;100985.0;;;9.64;92.23
77749;BME280;66938;52.084;5.228;2024-03-23T11:33:27;100984.0;;;9.58;84.76
77749;BME280;66938;52.084;5.228;2024-03-23T11:35:04;100984.0;;;9.68;88.33
77749;BME280;66938;52.084;5.228;2024-03-23T11:36:40;100982.0;;;9.56;81.09
77749;BME280;66938;52.084;5.228;2024-03-23T11:39:53;100984.0;;;9.5;85.54
77749;BME280;66938;52.084;5.228;2024-03-23T11:41:30;100982.0;;;9.59;80.48
77749;BME280;66938;52.084;5.228;2024-03-23T11:43:07;100980.0;;;9.67;76.3
77749;BME280;66938;52.084;5.228;2024-03-23T11:46:22;100983.0;;;9.65;73.38
77749;BME280;66938;52.084;5.228;2024-03-23T11:48:05;100978.0;;;9.57;74.58
77749;BME280;66938;52.084;5.228;2024-03-23T11:49:41;100978.0;;;9.42;74.13
77749;BME280;66938;52.084;5.228;2024-03-23T11:51:17;100978.0;;;9.73;77.8
77749;BME280;66938;52.084;5.228;2024-03-23T11:54:42;100973.0;;;9.89;76.55
77749;BME280;66938;52.084;5.228;2024-03-23T11:56:19;100977.0;;;10.09;78.58
77749;BME280;66938;52.084;5.228;2024-03-23T11:57:55;100970.0;;;10.27;76.91
77749;BME280;66938;52.084;5.228;2024-03-23T11:59:32;100977.0;;;10.41;76.41
77749;BME280;66938;52.084;5.228;2024-03-23T12:02:46;100981.0;;;10.48;73.22
77749;BME280;66938;52.084;5.228;2024-03-23T12:04:25;100964.0;;;10.6;72.55
77749;BME280;66938;52.084;5.228;2024-03-23T12:06:03;100955.0;;;10.93;76.84
77749;BME280;66938;52.084;5.228;2024-03-23T12:09:16;100949.0;;;11.17;72.72